Time;durP1;ratioP1;P1;durP2;ratioP2;P2;SDS_P1;SDS_P2;PMS_P1;PMS_P2;Temp;Humidity;BMP_temperature;BMP_pressure;BME280_temperature;BME280_humidity;BME280_pressure;Samples;Min_cycle;Max_cycle;Signal;HPM_P1;HPM_P2
2023/07/21 00:01:07;;;;;;;1.13;1.10;;;19.10;70.90;;;;;;5027471;28;20050;-79
2023/07/21 00:03:34;;;;;;;0.85;0.85;;;19.00;71.10;;;;;;5045120;28;20100;-78
2023/07/21 00:06:00;;;;;;;0.93;0.93;;;18.90;71.30;;;;;;5037871;28;20021;-79
2023/07/21 00:08:29;;;;;;;0.80;0.80;;;18.90;71.60;;;;;;5044065;28;20026;-78
2023/07/21 00:10:56;;;;;;;1.05;0.93;;;18.90;71.90;;;;;;5045813;28;20430;-79
2023/07/21 00:13:22;;;;;;;0.93;0.93;;;18.90;72.20;;;;;;5032108;28;20033;-79
2023/07/21 00:15:49;;;;;;;0.73;0.73;;;18.90;72.20;;;;;;5032060;28;20086;-78
2023/07/21 00:18:15;;;;;;;0.80;0.80;;;19.00;72.30;;;;;;5031091;28;20014;-79
2023/07/21 00:20:41;;;;;;;0.50;0.50;;;19.00;72.30;;;;;;5020391;28;20018;-79
2023/07/21 00:23:06;;;;;;;0.80;0.80;;;18.90;72.20;;;;;;5030745;28;20053;-78
2023/07/21 00:25:32;;;;;;;0.50;0.50;;;18.90;72.30;;;;;;5021966;28;20030;-78
2023/07/21 00:27:58;;;;;;;0.60;0.60;;;18.90;72.40;;;;;;5029330;28;20029;-79
2023/07/21 00:30:24;;;;;;;0.60;0.60;;;18.90;72.50;;;;;;5032959;28;20026;-80
2023/07/21 00:32:50;;;;;;;0.57;0.57;;;18.90;72.70;;;;;;5033390;28;20132;-78
2023/07/21 00:35:16;;;;;;;0.40;0.40;;;18.90;72.90;;;;;;5027245;28;20030;-79
2023/07/21 00:37:42;;;;;;;0.57;0.50;;;19.00;73.60;;;;;;5025449;28;20030;-79
2023/07/21 00:40:31;;;;;;;0.40;0.40;;;18.90;73.00;;;;;;5030562;28;20057;-79
2023/07/21 00:42:58;;;;;;;0.60;0.60;;;19.00;73.20;;;;;;5028680;28;20050;-79
2023/07/21 00:45:23;;;;;;;0.60;0.60;;;19.00;73.60;;;;;;5041461;28;20054;-79
2023/07/21 00:47:49;;;;;;;0.45;0.45;;;19.00;74.10;;;;;;5021354;28;20034;-78
2023/07/21 00:50:16;;;;;;;0.77;0.77;;;19.00;74.30;;;;;;5032195;28;20064;-79
2023/07/21 00:52:43;;;;;;;0.45;0.45;;;19.00;74.60;;;;;;5033927;28;20036;-78
2023/07/21 00:55:09;;;;;;;0.50;0.50;;;18.90;74.90;;;;;;5043303;28;20484;-79
2023/07/21 00:57:35;;;;;;;0.70;0.70;;;18.90;75.20;;;;;;5042358;28;20105;-79
2023/07/21 01:00:07;;;;;;;0.70;0.70;;;18.90;75.70;;;;;;5037926;28;20024;-76
2023/07/21 01:02:33;;;;;;;0.90;0.90;;;18.90;76.10;;;;;;5036182;28;20029;-77
2023/07/21 01:05:01;;;;;;;0.68;0.68;;;18.90;76.30;;;;;;5017973;28;20044;-79
2023/07/21 01:07:30;;;;;;;0.60;0.60;;;19.00;76.50;;;;;;5021235;28;20045;-77
2023/07/21 01:09:57;;;;;;;0.70;0.70;;;18.90;76.50;;;;;;5024760;28;20025;-79
2023/07/21 01:12:25;;;;;;;0.70;0.70;;;19.00;76.50;;;;;;5025624;28;20394;-78
2023/07/21 01:14:51;;;;;;;0.55;0.55;;;19.00;76.50;;;;;;5019733;28;20125;-79
2023/07/21 01:17:18;;;;;;;0.60;0.60;;;19.00;76.60;;;;;;5020992;28;20418;-79
2023/07/21 01:19:48;;;;;;;0.70;0.70;;;19.00;76.90;;;;;;5018802;28;20478;-79
2023/07/21 01:22:28;;;;;;;0.63;0.63;;;19.00;77.10;;;;;;5015818;28;20129;-77
2023/07/21 01:24:54;;;;;;;0.50;0.50;;;19.00;77.30;;;;;;5013865;28;20207;-77
2023/07/21 01:27:23;;;;;;;0.40;0.40;;;19.00;77.60;;;;;;5022105;28;20050;-77
2023/07/21 01:29:51;;;;;;;0.50;0.50;;;19.00;77.80;;;;;;5014876;28;20086;-80
2023/07/21 01:32:21;;;;;;;1.58;0.73;;;19.00;78.00;;;;;;5017312;28;20065;-79
2023/07/21 01:34:47;;;;;;;0.75;0.70;;;19.00;78.00;;;;;;5025825;28;20128;-79
2023/07/21 01:37:15;;;;;;;0.63;0.63;;;18.90;78.30;;;;;;5016985;28;20044;-78
2023/07/21 01:39:42;;;;;;;0.65;0.65;;;18.90;78.60;;;;;;5023861;28;20034;-79
2023/07/21 01:42:08;;;;;;;0.80;0.80;;;18.80;78.70;;;;;;5029888;28;20030;-78
2023/07/21 01:44:34;;;;;;;0.63;0.63;;;18.90;79.00;;;;;;5031802;28;20024;-78
2023/07/21 01:47:00;;;;;;;0.60;0.60;;;18.90;79.20;;;;;;5023209;28;20395;-82
2023/07/21 01:49:26;;;;;;;0.63;0.63;;;18.90;79.70;;;;;;5019772;28;20024;-80
2023/07/21 01:51:56;;;;;;;0.80;0.80;;;18.90;80.20;;;;;;5022124;28;20065;-82
2023/07/21 01:54:28;;;;;;;0.82;0.82;;;18.90;80.60;;;;;;5016916;28;20383;-80
2023/07/21 01:56:59;;;;;;;0.75;0.75;;;18.90;81.10;;;;;;5018313;28;20049;-81
2023/07/21 01:59:26;;;;;;;0.73;0.73;;;18.80;81.50;;;;;;5017349;28;20076;-82
2023/07/21 02:01:54;;;;;;;0.77;0.77;;;18.80;82.00;;;;;;5015240;28;20041;-81
2023/07/21 02:04:21;;;;;;;0.90;0.90;;;18.80;82.50;;;;;;5016837;28;20018;-81
2023/07/21 02:06:47;;;;;;;1.17;1.08;;;18.80;82.80;;;;;;5019396;28;20033;-82
2023/07/21 02:09:13;;;;;;;1.20;1.10;;;18.80;83.10;;;;;;5017862;28;20030;-81
2023/07/21 02:11:40;;;;;;;1.08;1.08;;;18.80;83.30;;;;;;5016609;28;20033;-80
2023/07/21 02:14:06;;;;;;;0.80;0.80;;;18.80;83.60;;;;;;5017971;28;20104;-79
2023/07/21 02:16:32;;;;;;;0.88;0.88;;;18.80;83.90;;;;;;5038806;28;20048;-80
2023/07/21 02:18:58;;;;;;;1.08;1.08;;;18.70;84.10;;;;;;5046169;28;20470;-79
2023/07/21 02:21:24;;;;;;;0.85;0.85;;;18.60;84.40;;;;;;5046849;28;20025;-80
2023/07/21 02:23:50;;;;;;;1.00;1.00;;;18.60;84.90;;;;;;5041304;28;20036;-82
2023/07/21 02:26:15;;;;;;;1.10;1.10;;;18.60;85.20;;;;;;5037336;28;20056;-82
2023/07/21 02:28:41;;;;;;;1.15;1.02;;;18.60;85.40;;;;;;5039186;28;20025;-81
2023/07/21 02:31:09;;;;;;;1.38;1.20;;;18.60;85.60;;;;;;5041326;28;20022;-79
2023/07/21 02:33:35;;;;;;;0.90;0.90;;;18.60;85.80;;;;;;5043551;28;20039;-81
2023/07/21 02:36:02;;;;;;;1.25;1.17;;;18.60;86.00;;;;;;5044555;28;20065;-79
2023/07/21 02:38:28;;;;;;;1.17;1.05;;;18.60;86.20;;;;;;5034281;28;20450;-81
2023/07/21 02:40:55;;;;;;;0.75;0.75;;;18.60;86.30;;;;;;5015652;28;20018;-81
2023/07/21 02:43:23;;;;;;;1.00;1.00;;;18.50;86.50;;;;;;5017089;28;20022;-82
2023/07/21 02:45:53;;;;;;;0.90;0.90;;;18.60;86.60;;;;;;5015034;28;20022;-81
2023/07/21 02:48:20;;;;;;;0.90;0.90;;;18.50;86.80;;;;;;5032358;28;20073;-81
2023/07/21 02:50:55;;;;;;;0.95;0.95;;;18.50;86.90;;;;;;5025887;28;20048;-80
2023/07/21 02:53:21;;;;;;;1.13;1.10;;;18.50;87.10;;;;;;5025742;28;20125;-81
2023/07/21 02:55:47;;;;;;;1.35;1.25;;;18.40;87.40;;;;;;5024351;28;20022;-79
2023/07/21 02:58:15;;;;;;;1.45;1.35;;;18.40;87.70;;;;;;5029058;28;20062;-79
2023/07/21 03:00:41;;;;;;;1.10;1.10;;;18.40;88.20;;;;;;5027702;28;20026;-79
2023/07/21 03:03:09;;;;;;;1.05;1.05;;;18.30;88.60;;;;;;5028012;28;20040;-78
2023/07/21 03:05:35;;;;;;;1.08;1.08;;;18.30;88.80;;;;;;5023520;28;20152;-78
2023/07/21 03:08:02;;;;;;;1.08;1.00;;;18.20;89.10;;;;;;5024085;28;20046;-77
2023/07/21 03:10:27;;;;;;;1.48;1.38;;;18.20;89.50;;;;;;5026856;28;20044;-79
2023/07/21 03:12:53;;;;;;;0.98;0.98;;;18.20;90.20;;;;;;5028447;28;20476;-80
2023/07/21 03:15:19;;;;;;;1.02;1.02;;;18.20;90.10;;;;;;5025426;28;20034;-78
2023/07/21 03:17:46;;;;;;;0.90;0.90;;;18.10;90.20;;;;;;5036938;28;20014;-78
2023/07/21 03:20:12;;;;;;;1.00;1.00;;;18.20;90.40;;;;;;5053437;28;20462;-79
2023/07/21 03:22:44;;;;;;;0.80;0.80;;;18.10;90.40;;;;;;5048124;28;20100;-81
2023/07/21 03:25:11;;;;;;;0.90;0.90;;;18.10;90.50;;;;;;5039831;28;20030;-83
2023/07/21 03:27:38;;;;;;;0.93;0.93;;;18.10;90.70;;;;;;5041426;28;20025;-82
2023/07/21 03:30:05;;;;;;;1.05;1.05;;;18.10;90.80;;;;;;5040158;28;20036;-81
2023/07/21 03:32:31;;;;;;;0.93;0.93;;;18.10;90.90;;;;;;5041644;28;20025;-82
2023/07/21 03:34:57;;;;;;;0.90;0.90;;;18.20;91.00;;;;;;5039599;28;20043;-81
2023/07/21 03:37:23;;;;;;;0.70;0.70;;;18.20;91.00;;;;;;5038342;28;20120;-80
2023/07/21 03:39:49;;;;;;;0.80;0.80;;;18.20;91.00;;;;;;5022733;28;20030;-80
2023/07/21 03:42:14;;;;;;;0.85;0.85;;;18.10;91.20;;;;;;5019544;28;20026;-81
2023/07/21 03:44:40;;;;;;;0.77;0.77;;;18.10;91.40;;;;;;5017250;28;20022;-82
2023/07/21 03:47:06;;;;;;;1.15;1.13;;;18.10;91.50;;;;;;5020088;28;20045;-80
2023/07/21 03:49:32;;;;;;;1.45;1.35;;;18.00;91.70;;;;;;5031023;28;20026;-81
2023/07/21 03:51:57;;;;;;;1.30;1.20;;;18.00;91.90;;;;;;5039962;28;20025;-82
2023/07/21 03:54:23;;;;;;;1.40;1.30;;;18.00;92.10;;;;;;5021923;28;20133;-81
2023/07/21 03:56:49;;;;;;;1.30;1.20;;;18.00;92.20;;;;;;5018455;28;20030;-81
2023/07/21 03:59:15;;;;;;;1.10;1.10;;;18.00;92.30;;;;;;5017571;28;20026;-81
2023/07/21 04:01:40;;;;;;;1.25;1.25;;;18.10;92.30;;;;;;5027173;28;20025;-79
2023/07/21 04:04:06;;;;;;;0.98;0.98;;;18.10;92.20;;;;;;5029610;28;20026;-78
2023/07/21 04:06:31;;;;;;;1.40;1.30;;;18.20;92.10;;;;;;5031838;28;20030;-78
2023/07/21 04:08:57;;;;;;;1.30;1.20;;;18.20;92.10;;;;;;5021298;28;20022;-80
2023/07/21 04:11:23;;;;;;;1.15;1.08;;;18.20;92.00;;;;;;5023738;28;20022;-77
2023/07/21 04:13:48;;;;;;;1.05;1.05;;;18.30;92.00;;;;;;5018922;28;20026;-81
2023/07/21 04:16:14;;;;;;;1.10;1.10;;;18.40;91.80;;;;;;5018930;28;20026;-81
2023/07/21 04:18:40;;;;;;;0.80;0.80;;;18.40;91.70;;;;;;5025727;28;20022;-82
2023/07/21 04:21:06;;;;;;;0.85;0.85;;;18.40;91.60;;;;;;5039116;28;20057;-81
2023/07/21 04:23:32;;;;;;;0.90;0.90;;;18.50;91.50;;;;;;5021725;28;20061;-80
2023/07/21 04:25:57;;;;;;;0.90;0.90;;;18.60;91.30;;;;;;5021724;28;20379;-80
2023/07/21 04:28:23;;;;;;;1.20;1.10;;;18.60;91.20;;;;;;5022129;28;20030;-82
2023/07/21 04:30:53;;;;;;;1.25;1.20;;;18.70;91.10;;;;;;5030275;28;20037;-81
2023/07/21 04:33:19;;;;;;;1.15;1.15;;;18.80;91.00;;;;;;5019808;28;20026;-81
2023/07/21 04:35:46;;;;;;;1.30;1.20;;;18.80;90.80;;;;;;5022897;28;20021;-80
2023/07/21 04:38:12;;;;;;;1.50;1.40;;;18.80;90.70;;;;;;5032328;28;20022;-77
2023/07/21 04:40:38;;;;;;;1.00;1.00;;;18.90;90.70;;;;;;5034721;28;20061;-80
2023/07/21 04:43:03;;;;;;;1.17;1.08;;;18.90;90.70;;;;;;5023772;28;20066;-81
2023/07/21 04:45:29;;;;;;;1.48;1.38;;;19.00;90.70;;;;;;5019727;28;20022;-81
2023/07/21 04:47:55;;;;;;;1.73;1.63;;;19.00;90.40;;;;;;5021661;28;20271;-81
2023/07/21 04:50:21;;;;;;;1.23;1.23;;;;;;;;;;5027428;28;20022;-82
2023/07/21 04:52:53;;;;;;;1.38;1.27;;;;;;;;;;5029291;28;20088;-82
2023/07/21 04:55:19;;;;;;;1.75;1.58;;;19.20;90.00;;;;;;5027630;28;20018;-78
2023/07/21 04:57:44;;;;;;;1.50;1.40;;;19.20;90.20;;;;;;5024616;28;20079;-81
2023/07/21 05:00:12;;;;;;;1.50;1.35;;;19.30;90.10;;;;;;5020901;28;20022;-80
2023/07/21 05:02:38;;;;;;;1.80;1.70;;;19.30;90.10;;;;;;5032567;28;20087;-79
2023/07/21 05:05:04;;;;;;;1.50;1.40;;;19.30;90.00;;;;;;5016872;28;20022;-81
2023/07/21 05:07:30;;;;;;;1.80;1.70;;;19.30;90.00;;;;;;5018172;28;20568;-81
2023/07/21 05:09:55;;;;;;;1.67;1.58;;;19.30;90.00;;;;;;5017884;28;20044;-82
2023/07/21 05:12:23;;;;;;;1.45;1.40;;;19.30;89.90;;;;;;5028428;28;20260;-82
2023/07/21 05:14:48;;;;;;;1.75;1.63;;;19.30;90.00;;;;;;5019112;28;20056;-83
2023/07/21 05:17:14;;;;;;;2.20;1.90;;;19.30;90.00;;;;;;5016968;28;20021;-81
2023/07/21 05:19:40;;;;;;;1.70;1.60;;;19.30;90.00;;;;;;5019418;28;20025;-80
2023/07/21 05:22:06;;;;;;;1.70;1.60;;;19.30;90.10;;;;;;5019879;28;20025;-82
2023/07/21 05:24:31;;;;;;;1.63;1.52;;;19.30;90.20;;;;;;5017765;28;20101;-82
2023/07/21 05:26:57;;;;;;;1.45;1.35;;;19.40;90.20;;;;;;5017609;28;20034;-81
2023/07/21 05:29:22;;;;;;;1.85;1.73;;;19.40;90.20;;;;;;5019543;28;20049;-81
2023/07/21 05:31:48;;;;;;;1.70;1.60;;;19.50;90.00;;;;;;5022932;28;20343;-78
2023/07/21 05:34:14;;;;;;;1.83;1.63;;;19.60;90.00;;;;;;5022807;28;20260;-82
2023/07/21 05:36:39;;;;;;;1.27;1.25;;;19.70;89.60;;;;;;5019453;28;20030;-81
2023/07/21 05:39:05;;;;;;;2.30;2.10;;;19.80;89.30;;;;;;5021883;28;20022;-82
2023/07/21 05:41:34;;;;;;;3.08;2.72;;;19.80;88.90;;;;;;5022662;28;20033;-80
2023/07/21 05:44:00;;;;;;;2.67;2.45;;;19.80;88.90;;;;;;5031558;28;20030;-81
2023/07/21 05:46:26;;;;;;;2.80;2.50;;;19.90;88.90;;;;;;5020755;28;20049;-82
2023/07/21 05:48:52;;;;;;;2.40;2.20;;;20.10;88.60;;;;;;5019895;28;20132;-81
2023/07/21 05:51:18;;;;;;;2.58;2.38;;;20.30;87.60;;;;;;5025352;28;20037;-81
2023/07/21 05:53:44;;;;;;;3.05;2.17;;;20.50;86.80;;;;;;5022948;28;20041;-83
2023/07/21 05:56:11;;;;;;;2.30;2.10;;;20.50;86.20;;;;;;5041444;28;20458;-82
2023/07/21 05:58:37;;;;;;;2.50;2.30;;;20.30;86.60;;;;;;5044815;28;20099;-79
2023/07/21 06:01:03;;;;;;;1.90;1.80;;;20.10;87.70;;;;;;5043426;28;20045;-81
2023/07/21 06:03:30;;;;;;;1.95;1.83;;;20.10;88.70;;;;;;5027282;28;20037;-79
2023/07/21 06:05:56;;;;;;;2.03;1.92;;;20.20;89.80;;;;;;5017833;28;20041;-80
2023/07/21 06:08:24;;;;;;;1.60;1.50;;;20.30;89.80;;;;;;5019745;28;20028;-82
2023/07/21 06:10:51;;;;;;;1.67;1.58;;;20.40;89.30;;;;;;5010560;28;20026;-81
2023/07/21 06:13:17;;;;;;;2.00;1.80;;;20.60;88.90;;;;;;5016737;28;20530;-81
2023/07/21 06:15:45;;;;;;;1.63;1.52;;;20.80;88.80;;;;;;5020695;28;20030;-80
2023/07/21 06:18:10;;;;;;;1.65;1.55;;;21.00;88.10;;;;;;5019264;28;20029;-81
2023/07/21 06:20:36;;;;;;;1.77;1.67;;;21.20;87.30;;;;;;5018538;28;20022;-81
2023/07/21 06:23:02;;;;;;;1.30;1.30;;;21.30;87.10;;;;;;5019424;28;20119;-81
2023/07/21 06:25:28;;;;;;;1.10;1.10;;;21.40;86.20;;;;;;5016802;28;20039;-80
2023/07/21 06:27:54;;;;;;;1.50;1.40;;;21.60;85.80;;;;;;5030764;28;20030;-79
2023/07/21 06:30:19;;;;;;;1.52;1.42;;;21.70;85.00;;;;;;5019692;28;20384;-80
2023/07/21 06:32:45;;;;;;;1.25;1.25;;;21.80;84.40;;;;;;5016785;28;20072;-78
2023/07/21 06:35:11;;;;;;;1.30;1.30;;;22.10;83.30;;;;;;5016065;28;20502;-80
2023/07/21 06:37:38;;;;;;;1.70;1.60;;;22.40;81.80;;;;;;5015490;28;20080;-80
2023/07/21 06:40:05;;;;;;;1.40;1.30;;;22.50;80.40;;;;;;5017311;28;20057;-80
2023/07/21 06:42:31;;;;;;;1.60;1.50;;;22.70;79.60;;;;;;5027421;28;20014;-80
2023/07/21 06:44:57;;;;;;;1.65;1.55;;;23.90;78.90;;;;;;5023225;28;20158;-77
2023/07/21 06:47:23;;;;;;;1.75;1.65;;;26.30;73.10;;;;;;5022458;28;20026;-80
2023/07/21 06:49:49;;;;;;;1.92;1.75;;;28.00;65.50;;;;;;5022288;28;20105;-80
2023/07/21 06:52:15;;;;;;;1.83;1.73;;;28.70;62.70;;;;;;5024228;28;20080;-80
2023/07/21 06:54:41;;;;;;;1.60;1.50;;;29.40;60.30;;;;;;5022746;28;20088;-82
2023/07/21 06:57:06;;;;;;;1.75;1.65;;;29.80;58.50;;;;;;5026048;28;20104;-78
2023/07/21 06:59:33;;;;;;;1.58;1.48;;;29.40;57.30;;;;;;5044730;28;20025;-79
2023/07/21 07:01:59;;;;;;;2.00;1.77;;;28.90;58.60;;;;;;5044635;28;20399;-82
2023/07/21 07:04:26;;;;;;;2.38;2.10;;;28.80;58.60;;;;;;5042542;28;20022;-80
2023/07/21 07:06:55;;;;;;;2.50;2.30;;;28.40;58.80;;;;;;5052428;28;20021;-79
2023/07/21 07:09:24;;;;;;;3.78;2.10;;;27.60;60.10;;;;;;5049715;28;20037;-78
2023/07/21 07:11:52;;;;;;;3.17;2.75;;;27.50;61.90;;;;;;5046778;28;20045;-78
2023/07/21 07:14:18;;;;;;;2.53;2.13;;;27.80;61.40;;;;;;5030779;28;20038;-79
2023/07/21 07:16:44;;;;;;;3.83;3.13;;;27.70;60.90;;;;;;5033006;28;20057;-77
2023/07/21 07:19:10;;;;;;;4.28;3.00;;;27.10;61.00;;;;;;5032607;28;20107;-82
2023/07/21 07:21:36;;;;;;;2.85;2.53;;;26.20;63.00;;;;;;5034141;28;20029;-77
2023/07/21 07:24:02;;;;;;;3.25;2.60;;;25.50;65.30;;;;;;5029107;28;20022;-77
2023/07/21 07:26:27;;;;;;;2.88;2.67;;;24.80;67.70;;;;;;5031421;28;20033;-79
2023/07/21 07:28:53;;;;;;;2.08;1.98;;;24.30;68.70;;;;;;5031381;28;20053;-78
2023/07/21 07:31:19;;;;;;;2.40;2.20;;;24.00;70.10;;;;;;5029734;28;20088;-79
2023/07/21 07:33:45;;;;;;;2.17;2.08;;;23.70;70.60;;;;;;5029252;28;20038;-77
2023/07/21 07:36:12;;;;;;;2.40;2.20;;;23.60;71.10;;;;;;5027115;28;20085;-79
2023/07/21 07:38:38;;;;;;;2.85;2.58;;;23.60;71.70;;;;;;5029034;28;20101;-78
2023/07/21 07:41:06;;;;;;;3.08;2.78;;;23.60;71.30;;;;;;5029896;28;20026;-77
2023/07/21 07:43:32;;;;;;;4.38;3.28;;;23.50;71.20;;;;;;5026493;28;20068;-79
2023/07/21 07:45:58;;;;;;;2.72;2.50;;;23.20;71.50;;;;;;5029184;28;20022;-79
2023/07/21 07:48:24;;;;;;;2.97;2.67;;;23.10;72.90;;;;;;5025376;28;20105;-78
2023/07/21 07:50:53;;;;;;;4.18;2.83;;;23.00;73.00;;;;;;5027465;28;20450;-78
2023/07/21 07:53:19;;;;;;;2.67;2.47;;;23.00;73.40;;;;;;5023833;28;20045;-81
2023/07/21 07:55:46;;;;;;;2.72;2.53;;;22.90;74.40;;;;;;5027626;28;20036;-81
2023/07/21 07:58:12;;;;;;;2.17;2.08;;;23.00;74.00;;;;;;5028429;28;20072;-81
2023/07/21 08:00:41;;;;;;;3.72;2.42;;;23.10;73.70;;;;;;5027596;28;20129;-79
2023/07/21 08:03:10;;;;;;;4.05;2.95;;;23.10;73.50;;;;;;5044656;28;20009;-81
2023/07/21 08:05:38;;;;;;;3.20;2.90;;;23.00;73.80;;;;;;5036294;28;20030;-78
2023/07/21 08:08:04;;;;;;;2.80;2.45;;;23.00;74.10;;;;;;5037126;28;20041;-78
2023/07/21 08:10:30;;;;;;;2.60;2.40;;;23.00;74.20;;;;;;5027788;28;20305;-80
2023/07/21 08:12:58;;;;;;;5.43;2.90;;;22.90;74.20;;;;;;5032392;28;20144;-78
2023/07/21 08:15:24;;;;;;;3.22;2.95;;;22.80;73.70;;;;;;5030440;28;20037;-79
2023/07/21 08:17:50;;;;;;;2.78;2.58;;;22.70;74.30;;;;;;5040186;28;20029;-79
2023/07/21 08:20:18;;;;;;;3.35;3.05;;;22.60;74.40;;;;;;5045959;28;20034;-82
2023/07/21 08:22:48;;;;;;;3.83;2.67;;;22.70;75.00;;;;;;5045364;28;20083;-81
2023/07/21 08:25:14;;;;;;;2.83;2.63;;;22.80;74.70;;;;;;5042524;28;20053;-80
2023/07/21 08:27:39;;;;;;;2.47;2.28;;;23.00;74.60;;;;;;5039923;28;20474;-79
2023/07/21 08:30:08;;;;;;;2.20;2.10;;;23.10;73.60;;;;;;5028156;28;20042;-80
2023/07/21 08:32:38;;;;;;;5.40;2.78;;;23.20;73.00;;;;;;5041349;28;20081;-79
2023/07/21 08:35:05;;;;;;;2.58;2.38;;;23.20;72.20;;;;;;5036028;28;20049;-78
2023/07/21 08:37:31;;;;;;;3.22;2.78;;;23.20;72.50;;;;;;5036597;28;20395;-78
2023/07/21 08:39:57;;;;;;;2.50;2.33;;;23.20;72.20;;;;;;5041545;28;20072;-80
2023/07/21 08:42:25;;;;;;;2.50;2.30;;;23.10;71.70;;;;;;5040130;28;20061;-78
2023/07/21 08:44:53;;;;;;;2.80;2.60;;;22.90;72.00;;;;;;5030201;28;20032;-78
2023/07/21 08:47:20;;;;;;;2.35;2.15;;;23.00;72.40;;;;;;5035049;28;20022;-77
2023/07/21 08:49:46;;;;;;;3.35;2.40;;;22.90;72.20;;;;;;5029587;28;20061;-79
2023/07/21 08:52:12;;;;;;;3.38;2.67;;;23.00;72.10;;;;;;5030340;28;20044;-79
2023/07/21 08:54:38;;;;;;;2.55;2.35;;;22.90;71.20;;;;;;5048947;28;20029;-79
2023/07/21 08:57:04;;;;;;;3.45;3.15;;;22.80;70.80;;;;;;5047590;28;20025;-77
2023/07/21 08:59:29;;;;;;;2.92;2.40;;;22.60;70.70;;;;;;5048769;28;20030;-78
2023/07/21 09:01:55;;;;;;;2.90;2.38;;;22.60;70.60;;;;;;5046345;28;20036;-79
2023/07/21 09:04:25;;;;;;;3.13;2.80;;;22.60;70.70;;;;;;5027802;28;20030;-80
2023/07/21 09:06:53;;;;;;;3.47;2.92;;;22.80;70.70;;;;;;5039610;28;20025;-78
2023/07/21 09:09:20;;;;;;;2.63;2.40;;;23.00;70.40;;;;;;5031983;28;20055;-79
2023/07/21 09:11:46;;;;;;;2.67;2.47;;;;;;;;;;5030013;28;20115;-78
2023/07/21 09:14:12;;;;;;;3.17;2.38;;;;;;;;;;5032142;28;20033;-81
2023/07/21 09:16:41;;;;;;;4.03;2.60;;;;;;;;;;5034623;28;20048;-79
2023/07/21 09:19:07;;;;;;;5.57;2.10;;;;;;;;;;5033887;28;20056;-79
2023/07/21 09:21:37;;;;;;;2.90;2.63;;;;;;;;;;5051539;28;20026;-79
2023/07/21 09:24:04;;;;;;;3.15;2.45;;;;;;;;;;5033823;28;20044;-77
2023/07/21 09:26:30;;;;;;;2.75;2.22;;;;;;;;;;5042826;28;20045;-78
2023/07/21 09:28:56;;;;;;;2.83;2.55;;;;;;;;;;5031072;28;20029;-80
2023/07/21 09:31:31;;;;;;;2.50;2.17;;;;;;;;;;5025111;28;20045;-78
2023/07/21 09:34:05;;;;;;;2.22;2.08;;;;;;;;;;5043953;28;20021;-78
2023/07/21 09:36:31;;;;;;;3.05;2.47;;;;;;;;;;5025369;28;20041;-79
2023/07/21 09:39:01;;;;;;;2.38;2.17;;;;;;;;;;5029145;28;20026;-79
2023/07/21 09:41:30;;;;;;;3.20;2.47;;;;;;;;;;5020465;28;20028;-80
2023/07/21 09:43:57;;;;;;;2.97;1.80;;;;;;;;;;5019443;28;20048;-81
2023/07/21 09:46:23;;;;;;;2.15;1.98;;;;;;;;;;5020627;28;20029;-80
2023/07/21 09:48:49;;;;;;;2.03;1.92;;;;;;;;;;5026291;28;20048;-80
2023/07/21 09:51:17;;;;;;;1.80;1.70;;;;;;;;;;5037750;28;20017;-79
2023/07/21 09:53:44;;;;;;;1.80;1.70;;;;;;;;;;5041220;28;20026;-79
2023/07/21 09:56:10;;;;;;;2.33;1.77;;;;;;;;;;5030218;28;20098;-79
2023/07/21 09:58:39;;;;;;;2.00;1.90;;;;;;;;;;5046209;28;20030;-78
2023/07/21 10:01:05;;;;;;;1.45;1.38;;;;;;;;;;5048845;28;20017;-80
2023/07/21 10:03:33;;;;;;;1.85;1.75;;;;;;;;;;5042237;28;20033;-81
2023/07/21 10:06:01;;;;;;;1.60;1.50;;;;;;;;;;5040018;28;20116;-81
2023/07/21 10:08:28;;;;;;;2.33;1.90;;;;;;;;;;5024095;28;20048;-81
2023/07/21 10:10:59;;;;;;;2.67;1.85;;;;;;;;;;5022841;28;20192;-81
2023/07/21 10:13:26;;;;;;;1.42;1.33;;;;;;;;;;5024270;28;20080;-80
2023/07/21 10:15:52;;;;;;;2.83;2.00;;;;;;;;;;5019709;28;20037;-81
2023/07/21 10:18:19;;;;;;;2.03;1.92;;;;;;;;;;5034296;28;20097;-80
2023/07/21 10:20:49;;;;;;;1.90;1.80;;;;;;;;;;5034300;28;20014;-80
2023/07/21 10:23:17;;;;;;;2.97;2.17;;;;;;;;;;5026467;28;20097;-79
2023/07/21 10:25:47;;;;;;;2.88;2.25;;;;;;;;;;5021586;28;20033;-83
2023/07/21 10:28:13;;;;;;;2.40;2.20;;;;;;;;;;5030235;28;20029;-79
2023/07/21 10:30:41;;;;;;;2.45;2.25;;;;;;;;;;5040058;28;20033;-81
2023/07/21 10:33:25;;;;;;;2.30;2.10;;;;;;;;;;5033370;28;20052;-80
2023/07/21 10:35:51;;;;;;;2.00;1.90;;;;;;;;;;5027699;28;20036;-81
2023/07/21 10:38:19;;;;;;;2.08;1.90;;;;;;;;;;5035616;28;20049;-81
2023/07/21 10:40:45;;;;;;;4.00;2.10;;;;;;;;;;5035717;28;20096;-80
2023/07/21 10:43:12;;;;;;;2.33;2.20;;;;;;;;;;5034823;28;20030;-82
2023/07/21 10:45:48;;;;;;;2.33;2.13;;;;;;;;;;5031205;28;20458;-79
2023/07/21 10:48:16;;;;;;;2.40;2.20;;;27.10;58.80;;;;;;5017672;28;20450;-78
2023/07/21 10:50:54;;;;;;;2.25;2.05;;;27.40;58.30;;;;;;5031391;28;20029;-79
2023/07/21 10:53:23;;;;;;;2.38;2.17;;;27.20;58.10;;;;;;5027552;28;20030;-83
2023/07/21 10:55:53;;;;;;;3.13;2.40;;;26.80;58.50;;;;;;5019358;28;20064;-82
2023/07/21 10:58:19;;;;;;;3.30;2.30;;;26.70;59.10;;;;;;5030952;28;20482;-80
2023/07/21 11:00:49;;;;;;;2.03;1.92;;;26.80;58.90;;;;;;5038306;28;20048;-81
2023/07/21 11:03:16;;;;;;;2.03;1.92;;;26.90;58.50;;;;;;5026928;28;20022;-81
2023/07/21 11:05:42;;;;;;;2.17;1.98;;;26.80;58.90;;;;;;5017588;28;20131;-80
2023/07/21 11:08:27;;;;;;;1.90;1.80;;;27.00;58.60;;;;;;5014838;28;20054;-80
2023/07/21 11:10:54;;;;;;;1.75;1.65;;;27.20;58.10;;;;;;5018293;28;20033;-78
2023/07/21 11:13:22;;;;;;;1.88;1.58;;;27.30;57.90;;;;;;5023342;28;20084;-81
2023/07/21 11:15:52;;;;;;;1.45;1.42;;;27.50;57.60;;;;;;5025017;28;20029;-79
2023/07/21 11:18:23;;;;;;;1.58;1.52;;;27.50;57.40;;;;;;5022926;28;20030;-80
2023/07/21 11:20:55;;;;;;;2.75;1.67;;;27.50;57.80;;;;;;5036717;28;20112;-80
2023/07/21 11:23:37;;;;;;;1.60;1.50;;;27.50;57.70;;;;;;5029554;28;20045;-79
2023/07/21 11:26:11;;;;;;;1.75;1.65;;;27.50;57.90;;;;;;5015391;28;20614;-83
2023/07/21 11:28:49;;;;;;;2.00;1.90;;;27.80;57.30;;;;;;5031220;28;20077;-80
2023/07/21 11:31:18;;;;;;;2.10;1.90;;;28.10;56.30;;;;;;5017585;28;20041;-81
2023/07/21 11:33:49;;;;;;;1.77;1.67;;;28.10;56.10;;;;;;5027992;28;20363;-80
2023/07/21 11:36:22;;;;;;;1.90;1.80;;;27.90;56.60;;;;;;5031567;28;20040;-79
2023/07/21 11:39:07;;;;;;;1.77;1.67;;;27.50;57.20;;;;;;5019001;28;20037;-80
2023/07/21 11:41:41;;;;;;;3.45;2.20;;;27.40;58.00;;;;;;5021153;28;20053;-80
2023/07/21 11:44:12;;;;;;;2.67;2.45;;;27.50;56.50;;;;;;5020696;28;20453;-80
2023/07/21 11:46:38;;;;;;;2.40;2.20;;;27.60;57.10;;;;;;5021945;28;20080;-82
2023/07/21 11:49:10;;;;;;;2.00;1.90;;;27.70;56.50;;;;;;5032876;28;20038;-78
2023/07/21 11:52:05;;;;;;;2.30;2.20;;;27.50;56.80;;;;;;5039585;28;20022;-81
2023/07/21 11:54:37;;;;;;;2.17;2.08;;;27.40;57.30;;;;;;5041182;28;20053;-80
2023/07/21 11:57:03;;;;;;;3.20;2.60;;;27.50;57.00;;;;;;5030047;28;20029;-80
2023/07/21 11:59:28;;;;;;;2.20;2.10;;;27.60;57.10;;;;;;5038625;28;20038;-81
2023/07/21 12:01:55;;;;;;;2.60;2.30;;;27.90;57.20;;;;;;5023695;28;20101;-80
2023/07/21 12:04:23;;;;;;;2.53;2.10;;;28.20;56.00;;;;;;5022799;28;20026;-81
2023/07/21 12:06:49;;;;;;;3.63;2.10;;;28.40;55.20;;;;;;5032123;28;20049;-81
2023/07/21 12:09:19;;;;;;;2.05;1.95;;;28.60;54.70;;;;;;5043240;28;20025;-79
2023/07/21 12:11:56;;;;;;;2.38;2.10;;;28.70;54.40;;;;;;5009181;28;20052;-81
2023/07/21 12:14:24;;;;;;;1.90;1.80;;;28.80;54.60;;;;;;5023303;28;20051;-80
2023/07/21 12:16:53;;;;;;;2.15;2.05;;;28.70;54.50;;;;;;5020273;28;20116;-79
2023/07/21 12:19:19;;;;;;;2.00;1.90;;;28.50;54.30;;;;;;5029181;28;20116;-78
2023/07/21 12:21:45;;;;;;;2.30;2.10;;;28.50;54.30;;;;;;5029380;28;20022;-77
2023/07/21 12:24:11;;;;;;;3.22;2.22;;;28.50;53.70;;;;;;5041744;28;20026;-80
2023/07/21 12:26:42;;;;;;;3.15;2.45;;;28.70;53.50;;;;;;5036461;28;20056;-80
2023/07/21 12:29:08;;;;;;;2.40;2.20;;;29.10;52.10;;;;;;5031339;28;20075;-76
2023/07/21 12:31:34;;;;;;;2.60;2.40;;;29.00;52.60;;;;;;5036763;28;20029;-79
2023/07/21 12:34:00;;;;;;;2.40;2.20;;;29.30;52.50;;;;;;5034841;28;20038;-79
2023/07/21 12:36:26;;;;;;;1.88;1.77;;;29.20;52.20;;;;;;5031903;28;20094;-79
2023/07/21 12:38:52;;;;;;;3.20;2.70;;;29.10;52.20;;;;;;5046552;28;20044;-77
2023/07/21 12:41:17;;;;;;;2.10;1.90;;;28.80;52.50;;;;;;5012728;28;20049;-78
2023/07/21 12:43:44;;;;;;;2.30;2.10;;;28.20;52.90;;;;;;5033185;28;20024;-79
2023/07/21 12:46:21;;;;;;;2.08;1.92;;;27.60;53.80;;;;;;5044928;28;20061;-81
2023/07/21 12:48:50;;;;;;;2.13;2.03;;;27.00;55.00;;;;;;5032240;28;20042;-79
2023/07/21 12:51:16;;;;;;;2.33;1.80;;;26.50;55.80;;;;;;5029818;28;20078;-82
2023/07/21 12:53:42;;;;;;;3.65;2.63;;;;;;;;;;5036507;28;20045;-80
2023/07/21 12:56:09;;;;;;;3.85;2.38;;;;;;;;;;5032202;28;20026;-80
2023/07/21 12:58:34;;;;;;;2.45;2.28;;;24.60;65.60;;;;;;5050704;28;20036;-81
2023/07/21 13:01:00;;;;;;;5.13;2.88;;;24.30;67.20;;;;;;5042991;28;20394;-80